sensor_id;sensor_type;location;lat;lon;timestamp;P1;durP1;ratioP1;P2;durP2;ratioP2
10365;SDS011;5229;41.820;23.490;2023-04-15T00:02:04;0.73;;;0.70;;
10365;SDS011;5229;41.820;23.490;2023-04-15T00:04:39;1.03;;;0.80;;
10365;SDS011;5229;41.820;23.490;2023-04-15T00:07:06;3.03;;;0.97;;
10365;SDS011;5229;41.820;23.490;2023-04-15T00:09:33;0.93;;;0.93;;
10365;SDS011;5229;41.820;23.490;2023-04-15T00:12:01;1.70;;;0.90;;
10365;SDS011;5229;41.820;23.490;2023-04-15T00:14:27;1.63;;;1.00;;
10365;SDS011;5229;41.820;23.490;2023-04-15T00:16:54;2.50;;;1.00;;
10365;SDS011;5229;41.820;23.490;2023-04-15T00:19:21;3.33;;;1.10;;
10365;SDS011;5229;41.820;23.490;2023-04-15T00:21:48;1.37;;;1.10;;
10365;SDS011;5229;41.820;23.490;2023-04-15T00:24:15;2.00;;;0.87;;
10365;SDS011;5229;41.820;23.490;2023-04-15T00:26:42;1.00;;;1.00;;
10365;SDS011;5229;41.820;23.490;2023-04-15T00:29:10;1.77;;;0.90;;
10365;SDS011;5229;41.820;23.490;2023-04-15T00:31:37;0.80;;;0.70;;
10365;SDS011;5229;41.820;23.490;2023-04-15T00:34:03;1.50;;;0.93;;
10365;SDS011;5229;41.820;23.490;2023-04-15T00:36:30;1.87;;;1.47;;
10365;SDS011;5229;41.820;23.490;2023-04-15T00:38:58;2.63;;;1.30;;
10365;SDS011;5229;41.820;23.490;2023-04-15T00:41:24;1.33;;;0.90;;
10365;SDS011;5229;41.820;23.490;2023-04-15T00:43:51;1.37;;;1.00;;
10365;SDS011;5229;41.820;23.490;2023-04-15T00:46:19;1.07;;;0.97;;
10365;SDS011;5229;41.820;23.490;2023-04-15T00:48:47;1.87;;;1.30;;
10365;SDS011;5229;41.820;23.490;2023-04-15T00:51:15;2.90;;;1.30;;
10365;SDS011;5229;41.820;23.490;2023-04-15T00:53:42;1.30;;;1.20;;
10365;SDS011;5229;41.820;23.490;2023-04-15T00:56:09;1.93;;;1.20;;
10365;SDS011;5229;41.820;23.490;2023-04-15T00:58:36;1.30;;;1.17;;
10365;SDS011;5229;41.820;23.490;2023-04-15T01:01:03;1.30;;;1.10;;
10365;SDS011;5229;41.820;23.490;2023-04-15T01:03:32;0.90;;;0.90;;
10365;SDS011;5229;41.820;23.490;2023-04-15T01:05:59;0.80;;;0.80;;
10365;SDS011;5229;41.820;23.490;2023-04-15T01:08:26;0.80;;;0.80;;
10365;SDS011;5229;41.820;23.490;2023-04-15T01:10:53;1.30;;;1.20;;
10365;SDS011;5229;41.820;23.490;2023-04-15T01:13:22;3.10;;;1.13;;
10365;SDS011;5229;41.820;23.490;2023-04-15T01:15:49;1.10;;;0.93;;
10365;SDS011;5229;41.820;23.490;2023-04-15T01:18:17;4.43;;;1.10;;
10365;SDS011;5229;41.820;23.490;2023-04-15T01:20:45;1.90;;;1.10;;
10365;SDS011;5229;41.820;23.490;2023-04-15T01:23:12;1.20;;;1.10;;
10365;SDS011;5229;41.820;23.490;2023-04-15T01:25:40;2.53;;;1.10;;
10365;SDS011;5229;41.820;23.490;2023-04-15T01:28:09;2.07;;;1.87;;
10365;SDS011;5229;41.820;23.490;2023-04-15T01:30:36;2.43;;;2.20;;
10365;SDS011;5229;41.820;23.490;2023-04-15T01:33:02;2.50;;;2.30;;
10365;SDS011;5229;41.820;23.490;2023-04-15T01:35:29;2.60;;;2.20;;
10365;SDS011;5229;41.820;23.490;2023-04-15T01:37:57;1.50;;;1.40;;
10365;SDS011;5229;41.820;23.490;2023-04-15T01:40:28;1.67;;;1.30;;
10365;SDS011;5229;41.820;23.490;2023-04-15T01:42:57;1.60;;;1.33;;
10365;SDS011;5229;41.820;23.490;2023-04-15T01:45:23;1.43;;;1.33;;
10365;SDS011;5229;41.820;23.490;2023-04-15T01:47:51;4.03;;;1.40;;
10365;SDS011;5229;41.820;23.490;2023-04-15T01:50:18;1.27;;;1.00;;
10365;SDS011;5229;41.820;23.490;2023-04-15T01:52:45;2.13;;;1.30;;
10365;SDS011;5229;41.820;23.490;2023-04-15T01:55:12;1.40;;;1.10;;
10365;SDS011;5229;41.820;23.490;2023-04-15T01:57:39;1.00;;;0.80;;
10365;SDS011;5229;41.820;23.490;2023-04-15T02:00:08;1.70;;;1.23;;
10365;SDS011;5229;41.820;23.490;2023-04-15T02:02:35;1.10;;;0.90;;
10365;SDS011;5229;41.820;23.490;2023-04-15T02:05:02;2.07;;;1.13;;
10365;SDS011;5229;41.820;23.490;2023-04-15T02:07:29;1.07;;;1.00;;
10365;SDS011;5229;41.820;23.490;2023-04-15T02:09:57;1.70;;;1.40;;
10365;SDS011;5229;41.820;23.490;2023-04-15T02:12:24;1.30;;;1.20;;
10365;SDS011;5229;41.820;23.490;2023-04-15T02:14:51;1.23;;;1.13;;
10365;SDS011;5229;41.820;23.490;2023-04-15T02:17:19;1.63;;;1.50;;
10365;SDS011;5229;41.820;23.490;2023-04-15T02:19:46;2.87;;;1.87;;
10365;SDS011;5229;41.820;23.490;2023-04-15T02:22:13;2.90;;;1.80;;
10365;SDS011;5229;41.820;23.490;2023-04-15T02:24:42;4.23;;;1.93;;
10365;SDS011;5229;41.820;23.490;2023-04-15T02:27:14;2.53;;;2.00;;
10365;SDS011;5229;41.820;23.490;2023-04-15T02:29:42;2.93;;;1.53;;
10365;SDS011;5229;41.820;23.490;2023-04-15T02:32:09;1.73;;;1.63;;
10365;SDS011;5229;41.820;23.490;2023-04-15T02:34:38;1.70;;;1.50;;
10365;SDS011;5229;41.820;23.490;2023-04-15T02:37:06;4.60;;;1.70;;
10365;SDS011;5229;41.820;23.490;2023-04-15T02:39:33;4.73;;;2.20;;
10365;SDS011;5229;41.820;23.490;2023-04-15T02:42:00;3.57;;;2.60;;
10365;SDS011;5229;41.820;23.490;2023-04-15T02:44:27;4.03;;;2.40;;
10365;SDS011;5229;41.820;23.490;2023-04-15T02:46:54;2.53;;;2.03;;
10365;SDS011;5229;41.820;23.490;2023-04-15T02:49:21;2.87;;;2.10;;
10365;SDS011;5229;41.820;23.490;2023-04-15T02:51:50;2.70;;;2.43;;
10365;SDS011;5229;41.820;23.490;2023-04-15T02:54:17;2.30;;;2.03;;
10365;SDS011;5229;41.820;23.490;2023-04-15T02:56:44;2.00;;;1.73;;
10365;SDS011;5229;41.820;23.490;2023-04-15T02:59:11;3.03;;;1.27;;
10365;SDS011;5229;41.820;23.490;2023-04-15T03:01:38;2.23;;;1.27;;
10365;SDS011;5229;41.820;23.490;2023-04-15T03:04:05;4.83;;;1.50;;
10365;SDS011;5229;41.820;23.490;2023-04-15T03:06:32;4.53;;;1.37;;
10365;SDS011;5229;41.820;23.490;2023-04-15T03:09:01;3.43;;;1.47;;
10365;SDS011;5229;41.820;23.490;2023-04-15T03:11:28;2.90;;;1.47;;
10365;SDS011;5229;41.820;23.490;2023-04-15T03:13:55;1.30;;;1.20;;
10365;SDS011;5229;41.820;23.490;2023-04-15T03:16:22;2.13;;;1.30;;
10365;SDS011;5229;41.820;23.490;2023-04-15T03:18:49;1.20;;;0.97;;
10365;SDS011;5229;41.820;23.490;2023-04-15T03:21:15;1.40;;;1.07;;
10365;SDS011;5229;41.820;23.490;2023-04-15T03:23:43;1.33;;;1.23;;
10365;SDS011;5229;41.820;23.490;2023-04-15T03:26:23;2.30;;;0.90;;
10365;SDS011;5229;41.820;23.490;2023-04-15T03:28:52;1.70;;;1.20;;
10365;SDS011;5229;41.820;23.490;2023-04-15T03:31:19;2.67;;;1.50;;
10365;SDS011;5229;41.820;23.490;2023-04-15T03:33:46;1.40;;;1.30;;
10365;SDS011;5229;41.820;23.490;2023-04-15T03:36:13;1.83;;;1.50;;
10365;SDS011;5229;41.820;23.490;2023-04-15T03:38:40;1.40;;;1.30;;
10365;SDS011;5229;41.820;23.490;2023-04-15T03:41:06;1.93;;;1.27;;
10365;SDS011;5229;41.820;23.490;2023-04-15T03:43:35;2.20;;;1.23;;
10365;SDS011;5229;41.820;23.490;2023-04-15T03:46:02;1.47;;;1.37;;
10365;SDS011;5229;41.820;23.490;2023-04-15T03:48:29;1.13;;;1.03;;
10365;SDS011;5229;41.820;23.490;2023-04-15T03:50:55;1.17;;;1.07;;
10365;SDS011;5229;41.820;23.490;2023-04-15T03:53:22;2.63;;;1.30;;
10365;SDS011;5229;41.820;23.490;2023-04-15T03:55:49;1.37;;;1.27;;
10365;SDS011;5229;41.820;23.490;2023-04-15T03:58:16;2.13;;;1.20;;
10365;SDS011;5229;41.820;23.490;2023-04-15T04:00:44;2.27;;;1.30;;
10365;SDS011;5229;41.820;23.490;2023-04-15T04:03:11;1.60;;;1.23;;
10365;SDS011;5229;41.820;23.490;2023-04-15T04:05:38;2.70;;;1.40;;
10365;SDS011;5229;41.820;23.490;2023-04-15T04:08:05;2.60;;;1.20;;
10365;SDS011;5229;41.820;23.490;2023-04-15T04:10:32;3.27;;;1.40;;
10365;SDS011;5229;41.820;23.490;2023-04-15T04:12:59;2.33;;;1.60;;
10365;SDS011;5229;41.820;23.490;2023-04-15T04:15:26;1.97;;;1.30;;
10365;SDS011;5229;41.820;23.490;2023-04-15T04:17:54;3.60;;;1.50;;
10365;SDS011;5229;41.820;23.490;2023-04-15T04:20:21;1.57;;;1.10;;
10365;SDS011;5229;41.820;23.490;2023-04-15T04:22:48;1.33;;;1.20;;
10365;SDS011;5229;41.820;23.490;2023-04-15T04:25:15;6.13;;;4.10;;
10365;SDS011;5229;41.820;23.490;2023-04-15T04:27:42;12.20;;;6.03;;
10365;SDS011;5229;41.820;23.490;2023-04-15T04:30:09;70.13;;;9.63;;
10365;SDS011;5229;41.820;23.490;2023-04-15T04:32:37;46.47;;;6.63;;
10365;SDS011;5229;41.820;23.490;2023-04-15T04:35:05;152.97;;;10.83;;
10365;SDS011;5229;41.820;23.490;2023-04-15T04:37:32;123.90;;;9.07;;
10365;SDS011;5229;41.820;23.490;2023-04-15T04:39:59;16.80;;;5.33;;
10365;SDS011;5229;41.820;23.490;2023-04-15T04:42:25;30.20;;;5.60;;
10365;SDS011;5229;41.820;23.490;2023-04-15T04:44:52;61.50;;;9.00;;
10365;SDS011;5229;41.820;23.490;2023-04-15T04:47:19;68.83;;;9.97;;
10365;SDS011;5229;41.820;23.490;2023-04-15T04:49:46;63.07;;;7.53;;
10365;SDS011;5229;41.820;23.490;2023-04-15T04:52:14;27.00;;;5.93;;
10365;SDS011;5229;41.820;23.490;2023-04-15T04:54:41;12.53;;;4.53;;
10365;SDS011;5229;41.820;23.490;2023-04-15T04:57:08;10.67;;;4.57;;
10365;SDS011;5229;41.820;23.490;2023-04-15T04:59:34;4.40;;;3.67;;
10365;SDS011;5229;41.820;23.490;2023-04-15T05:02:02;18.47;;;5.20;;
10365;SDS011;5229;41.820;23.490;2023-04-15T05:04:29;24.00;;;6.13;;
10365;SDS011;5229;41.820;23.490;2023-04-15T05:06:56;34.57;;;9.17;;
10365;SDS011;5229;41.820;23.490;2023-04-15T05:09:24;44.93;;;7.40;;
10365;SDS011;5229;41.820;23.490;2023-04-15T05:11:51;28.83;;;6.67;;
10365;SDS011;5229;41.820;23.490;2023-04-15T05:14:18;10.67;;;5.40;;
10365;SDS011;5229;41.820;23.490;2023-04-15T05:16:45;16.43;;;5.73;;
10365;SDS011;5229;41.820;23.490;2023-04-15T05:19:11;31.67;;;4.87;;
10365;SDS011;5229;41.820;23.490;2023-04-15T05:21:38;11.90;;;4.90;;
10365;SDS011;5229;41.820;23.490;2023-04-15T05:24:05;37.60;;;6.30;;
10365;SDS011;5229;41.820;23.490;2023-04-15T05:26:33;29.93;;;8.27;;
10365;SDS011;5229;41.820;23.490;2023-04-15T05:29:00;25.37;;;6.77;;
10365;SDS011;5229;41.820;23.490;2023-04-15T05:31:27;17.63;;;10.40;;
10365;SDS011;5229;41.820;23.490;2023-04-15T05:33:53;31.93;;;6.30;;
10365;SDS011;5229;41.820;23.490;2023-04-15T05:36:20;14.83;;;6.53;;
10365;SDS011;5229;41.820;23.490;2023-04-15T05:38:47;4.50;;;4.03;;
10365;SDS011;5229;41.820;23.490;2023-04-15T05:41:14;4.97;;;3.87;;
10365;SDS011;5229;41.820;23.490;2023-04-15T05:43:42;3.90;;;3.27;;
10365;SDS011;5229;41.820;23.490;2023-04-15T05:46:09;2.97;;;2.67;;
10365;SDS011;5229;41.820;23.490;2023-04-15T05:48:36;2.60;;;2.37;;
10365;SDS011;5229;41.820;23.490;2023-04-15T05:51:03;3.30;;;3.00;;
10365;SDS011;5229;41.820;23.490;2023-04-15T05:53:30;5.27;;;3.70;;
10365;SDS011;5229;41.820;23.490;2023-04-15T05:55:57;5.00;;;3.87;;
10365;SDS011;5229;41.820;23.490;2023-04-15T05:58:24;3.97;;;3.50;;
10365;SDS011;5229;41.820;23.490;2023-04-15T06:00:52;3.83;;;3.43;;
10365;SDS011;5229;41.820;23.490;2023-04-15T06:03:19;4.23;;;3.60;;
10365;SDS011;5229;41.820;23.490;2023-04-15T06:05:45;4.33;;;3.93;;
10365;SDS011;5229;41.820;23.490;2023-04-15T06:08:12;3.00;;;2.47;;
10365;SDS011;5229;41.820;23.490;2023-04-15T06:10:39;4.60;;;3.30;;
10365;SDS011;5229;41.820;23.490;2023-04-15T06:13:06;3.73;;;2.63;;
10365;SDS011;5229;41.820;23.490;2023-04-15T06:15:33;4.43;;;3.43;;
10365;SDS011;5229;41.820;23.490;2023-04-15T06:18:01;5.60;;;3.50;;
10365;SDS011;5229;41.820;23.490;2023-04-15T06:20:28;3.93;;;3.13;;
10365;SDS011;5229;41.820;23.490;2023-04-15T06:22:55;3.87;;;2.97;;
10365;SDS011;5229;41.820;23.490;2023-04-15T06:25:22;5.57;;;3.73;;
10365;SDS011;5229;41.820;23.490;2023-04-15T06:27:49;8.67;;;6.77;;
10365;SDS011;5229;41.820;23.490;2023-04-15T06:30:16;17.27;;;13.10;;
10365;SDS011;5229;41.820;23.490;2023-04-15T06:32:43;17.67;;;15.00;;
10365;SDS011;5229;41.820;23.490;2023-04-15T06:35:11;12.60;;;10.60;;
10365;SDS011;5229;41.820;23.490;2023-04-15T06:37:38;11.03;;;8.93;;
10365;SDS011;5229;41.820;23.490;2023-04-15T06:40:05;10.00;;;8.43;;
10365;SDS011;5229;41.820;23.490;2023-04-15T06:42:34;8.93;;;7.43;;
10365;SDS011;5229;41.820;23.490;2023-04-15T06:45:02;14.80;;;11.23;;
10365;SDS011;5229;41.820;23.490;2023-04-15T06:47:29;15.83;;;11.07;;
10365;SDS011;5229;41.820;23.490;2023-04-15T06:49:56;15.83;;;11.00;;
10365;SDS011;5229;41.820;23.490;2023-04-15T06:52:24;17.37;;;11.17;;
10365;SDS011;5229;41.820;23.490;2023-04-15T06:54:51;13.50;;;10.97;;
10365;SDS011;5229;41.820;23.490;2023-04-15T06:57:18;14.77;;;11.17;;
10365;SDS011;5229;41.820;23.490;2023-04-15T06:59:44;16.57;;;11.17;;
10365;SDS011;5229;41.820;23.490;2023-04-15T07:02:12;15.10;;;11.57;;
10365;SDS011;5229;41.820;23.490;2023-04-15T07:04:39;14.40;;;11.00;;
10365;SDS011;5229;41.820;23.490;2023-04-15T07:07:05;14.17;;;10.53;;
10365;SDS011;5229;41.820;23.490;2023-04-15T07:09:33;12.30;;;9.80;;
10365;SDS011;5229;41.820;23.490;2023-04-15T07:12:00;13.63;;;11.40;;
10365;SDS011;5229;41.820;23.490;2023-04-15T07:14:27;15.03;;;12.00;;
10365;SDS011;5229;41.820;23.490;2023-04-15T07:16:54;12.93;;;10.43;;
10365;SDS011;5229;41.820;23.490;2023-04-15T07:19:21;12.97;;;9.37;;
10365;SDS011;5229;41.820;23.490;2023-04-15T07:21:48;12.70;;;10.50;;
10365;SDS011;5229;41.820;23.490;2023-04-15T07:24:15;12.27;;;9.40;;
10365;SDS011;5229;41.820;23.490;2023-04-15T07:26:45;12.33;;;10.40;;
10365;SDS011;5229;41.820;23.490;2023-04-15T07:29:12;12.80;;;10.77;;
10365;SDS011;5229;41.820;23.490;2023-04-15T07:31:39;11.70;;;9.83;;
10365;SDS011;5229;41.820;23.490;2023-04-15T07:34:06;10.03;;;8.93;;
10365;SDS011;5229;41.820;23.490;2023-04-15T07:36:33;10.88;;;8.98;;
10365;SDS011;5229;41.820;23.490;2023-04-15T07:39:00;10.05;;;8.23;;
10365;SDS011;5229;41.820;23.490;2023-04-15T07:41:28;10.55;;;8.38;;
10365;SDS011;5229;41.820;23.490;2023-04-15T07:43:56;8.27;;;7.47;;
10365;SDS011;5229;41.820;23.490;2023-04-15T07:46:23;8.75;;;6.80;;
10365;SDS011;5229;41.820;23.490;2023-04-15T07:48:51;8.45;;;7.05;;
10365;SDS011;5229;41.820;23.490;2023-04-15T07:51:18;9.02;;;5.60;;
10365;SDS011;5229;41.820;23.490;2023-04-15T07:53:45;6.32;;;4.88;;
10365;SDS011;5229;41.820;23.490;2023-04-15T07:56:12;7.05;;;5.80;;
10365;SDS011;5229;41.820;23.490;2023-04-15T07:58:39;9.30;;;7.15;;
10365;SDS011;5229;41.820;23.490;2023-04-15T08:01:08;6.80;;;6.10;;
10365;SDS011;5229;41.820;23.490;2023-04-15T08:03:34;7.57;;;6.78;;
10365;SDS011;5229;41.820;23.490;2023-04-15T08:06:01;7.07;;;5.45;;
10365;SDS011;5229;41.820;23.490;2023-04-15T08:08:28;4.85;;;4.07;;
10365;SDS011;5229;41.820;23.490;2023-04-15T08:10:55;2.97;;;2.35;;
10365;SDS011;5229;41.820;23.490;2023-04-15T08:13:22;3.17;;;2.50;;
10365;SDS011;5229;41.820;23.490;2023-04-15T08:15:52;3.47;;;2.85;;
10365;SDS011;5229;41.820;23.490;2023-04-15T08:18:39;2.78;;;2.55;;
10365;SDS011;5229;41.820;23.490;2023-04-15T08:21:06;2.30;;;2.10;;
10365;SDS011;5229;41.820;23.490;2023-04-15T08:23:33;1.52;;;1.42;;
10365;SDS011;5229;41.820;23.490;2023-04-15T08:26:00;1.67;;;1.58;;
10365;SDS011;5229;41.820;23.490;2023-04-15T08:28:27;3.03;;;1.95;;
10365;SDS011;5229;41.820;23.490;2023-04-15T08:30:54;3.22;;;1.80;;
10365;SDS011;5229;41.820;23.490;2023-04-15T08:33:20;1.50;;;1.40;;
10365;SDS011;5229;41.820;23.490;2023-04-15T08:35:49;1.33;;;1.10;;
10365;SDS011;5229;41.820;23.490;2023-04-15T08:38:15;3.70;;;1.52;;
10365;SDS011;5229;41.820;23.490;2023-04-15T08:40:44;1.15;;;1.08;;
10365;SDS011;5229;41.820;23.490;2023-04-15T08:43:12;1.15;;;1.08;;
10365;SDS011;5229;41.820;23.490;2023-04-15T08:45:42;1.10;;;1.00;;
10365;SDS011;5229;41.820;23.490;2023-04-15T08:48:11;2.63;;;0.98;;
10365;SDS011;5229;41.820;23.490;2023-04-15T08:50:41;1.42;;;1.00;;
10365;SDS011;5229;41.820;23.490;2023-04-15T08:53:09;1.55;;;1.13;;
10365;SDS011;5229;41.820;23.490;2023-04-15T08:55:38;1.88;;;1.10;;
10365;SDS011;5229;41.820;23.490;2023-04-15T08:58:09;1.10;;;0.88;;
10365;SDS011;5229;41.820;23.490;2023-04-15T09:00:37;2.05;;;0.90;;
10365;SDS011;5229;41.820;23.490;2023-04-15T09:03:04;1.08;;;0.80;;
10365;SDS011;5229;41.820;23.490;2023-04-15T09:05:32;0.75;;;0.63;;
10365;SDS011;5229;41.820;23.490;2023-04-15T09:08:02;1.05;;;0.95;;
10365;SDS011;5229;41.820;23.490;2023-04-15T09:10:31;0.77;;;0.77;;
10365;SDS011;5229;41.820;23.490;2023-04-15T09:12:59;1.58;;;1.05;;
10365;SDS011;5229;41.820;23.490;2023-04-15T09:15:27;2.25;;;1.40;;
10365;SDS011;5229;41.820;23.490;2023-04-15T09:17:54;2.40;;;1.83;;
10365;SDS011;5229;41.820;23.490;2023-04-15T09:20:21;1.92;;;1.50;;
10365;SDS011;5229;41.820;23.490;2023-04-15T09:22:49;1.70;;;1.60;;
10365;SDS011;5229;41.820;23.490;2023-04-15T09:25:28;3.30;;;2.40;;
10365;SDS011;5229;41.820;23.490;2023-04-15T09:27:57;3.58;;;2.15;;
10365;SDS011;5229;41.820;23.490;2023-04-15T09:30:24;2.65;;;2.13;;
10365;SDS011;5229;41.820;23.490;2023-04-15T09:32:53;1.25;;;1.15;;
10365;SDS011;5229;41.820;23.490;2023-04-15T09:35:22;1.67;;;1.30;;
10365;SDS011;5229;41.820;23.490;2023-04-15T09:37:50;3.88;;;1.77;;
10365;SDS011;5229;41.820;23.490;2023-04-15T09:40:29;1.55;;;1.27;;
10365;SDS011;5229;41.820;23.490;2023-04-15T09:42:58;4.63;;;1.48;;
10365;SDS011;5229;41.820;23.490;2023-04-15T09:45:26;1.50;;;1.40;;
10365;SDS011;5229;41.820;23.490;2023-04-15T09:47:53;1.90;;;1.60;;
10365;SDS011;5229;41.820;23.490;2023-04-15T09:50:20;1.50;;;1.40;;
10365;SDS011;5229;41.820;23.490;2023-04-15T09:52:46;1.60;;;1.38;;
10365;SDS011;5229;41.820;23.490;2023-04-15T09:55:13;1.85;;;1.52;;
10365;SDS011;5229;41.820;23.490;2023-04-15T09:57:41;2.00;;;1.60;;
10365;SDS011;5229;41.820;23.490;2023-04-15T10:00:10;1.33;;;1.23;;
10365;SDS011;5229;41.820;23.490;2023-04-15T10:02:38;1.75;;;1.40;;
10365;SDS011;5229;41.820;23.490;2023-04-15T10:05:07;1.52;;;1.30;;
10365;SDS011;5229;41.820;23.490;2023-04-15T10:07:36;3.42;;;1.50;;
10365;SDS011;5229;41.820;23.490;2023-04-15T10:10:05;1.67;;;1.52;;
10365;SDS011;5229;41.820;23.490;2023-04-15T10:12:33;1.73;;;1.27;;
10365;SDS011;5229;41.820;23.490;2023-04-15T10:15:03;1.33;;;0.90;;
10365;SDS011;5229;41.820;23.490;2023-04-15T10:17:33;1.05;;;1.02;;
10365;SDS011;5229;41.820;23.490;2023-04-15T10:20:02;0.77;;;0.77;;
10365;SDS011;5229;41.820;23.490;2023-04-15T10:22:31;1.48;;;1.20;;
10365;SDS011;5229;41.820;23.490;2023-04-15T10:24:58;1.80;;;1.23;;
10365;SDS011;5229;41.820;23.490;2023-04-15T10:27:26;1.17;;;1.08;;
10365;SDS011;5229;41.820;23.490;2023-04-15T10:29:53;0.98;;;0.93;;
10365;SDS011;5229;41.820;23.490;2023-04-15T10:32:20;1.02;;;1.00;;
10365;SDS011;5229;41.820;23.490;2023-04-15T10:34:50;1.08;;;0.98;;
10365;SDS011;5229;41.820;23.490;2023-04-15T10:37:21;2.38;;;1.10;;
10365;SDS011;5229;41.820;23.490;2023-04-15T10:39:48;1.05;;;0.80;;
10365;SDS011;5229;41.820;23.490;2023-04-15T10:42:15;1.83;;;0.73;;
10365;SDS011;5229;41.820;23.490;2023-04-15T10:44:43;1.60;;;1.10;;
10365;SDS011;5229;41.820;23.490;2023-04-15T10:47:11;1.48;;;1.10;;
10365;SDS011;5229;41.820;23.490;2023-04-15T10:49:44;1.30;;;1.20;;
10365;SDS011;5229;41.820;23.490;2023-04-15T10:52:13;1.13;;;1.02;;
10365;SDS011;5229;41.820;23.490;2023-04-15T10:54:41;1.25;;;1.15;;
10365;SDS011;5229;41.820;23.490;2023-04-15T10:57:13;1.40;;;1.10;;
10365;SDS011;5229;41.820;23.490;2023-04-15T11:00:01;1.05;;;0.95;;
10365;SDS011;5229;41.820;23.490;2023-04-15T11:02:38;1.10;;;1.00;;
10365;SDS011;5229;41.820;23.490;2023-04-15T11:05:12;2.60;;;1.17;;
10365;SDS011;5229;41.820;23.490;2023-04-15T11:07:47;2.20;;;1.00;;
10365;SDS011;5229;41.820;23.490;2023-04-15T11:13:23;1.02;;;0.93;;
10365;SDS011;5229;41.820;23.490;2023-04-15T11:15:56;1.55;;;1.17;;
10365;SDS011;5229;41.820;23.490;2023-04-15T11:18:26;1.63;;;1.08;;
10365;SDS011;5229;41.820;23.490;2023-04-15T11:20:55;1.40;;;1.20;;
10365;SDS011;5229;41.820;23.490;2023-04-15T11:23:28;1.30;;;1.02;;
10365;SDS011;5229;41.820;23.490;2023-04-15T11:25:56;2.15;;;1.00;;
10365;SDS011;5229;41.820;23.490;2023-04-15T11:28:25;1.05;;;1.05;;
10365;SDS011;5229;41.820;23.490;2023-04-15T11:30:53;1.73;;;0.90;;
10365;SDS011;5229;41.820;23.490;2023-04-15T11:33:21;1.85;;;1.02;;
10365;SDS011;5229;41.820;23.490;2023-04-15T11:35:49;1.17;;;1.10;;
10365;SDS011;5229;41.820;23.490;2023-04-15T11:38:18;1.55;;;0.90;;
10365;SDS011;5229;41.820;23.490;2023-04-15T11:40:46;0.80;;;0.80;;
10365;SDS011;5229;41.820;23.490;2023-04-15T11:43:14;1.10;;;1.00;;
10365;SDS011;5229;41.820;23.490;2023-04-15T11:45:52;2.75;;;0.90;;
10365;SDS011;5229;41.820;23.490;2023-04-15T11:48:21;1.17;;;0.90;;
10365;SDS011;5229;41.820;23.490;2023-04-15T11:50:53;1.00;;;0.90;;
10365;SDS011;5229;41.820;23.490;2023-04-15T11:53:21;1.35;;;1.02;;
10365;SDS011;5229;41.820;23.490;2023-04-15T11:55:50;1.45;;;1.10;;
10365;SDS011;5229;41.820;23.490;2023-04-15T11:58:19;0.70;;;0.70;;
10365;SDS011;5229;41.820;23.490;2023-04-15T12:00:48;0.70;;;0.70;;
10365;SDS011;5229;41.820;23.490;2023-04-15T12:03:17;2.63;;;0.93;;
10365;SDS011;5229;41.820;23.490;2023-04-15T12:06:07;1.53;;;1.13;;
10365;SDS011;5229;41.820;23.490;2023-04-15T12:11:36;1.27;;;1.17;;
10365;SDS011;5229;41.820;23.490;2023-04-15T12:14:06;3.33;;;2.17;;
10365;SDS011;5229;41.820;23.490;2023-04-15T12:16:35;0.70;;;0.70;;
10365;SDS011;5229;41.820;23.490;2023-04-15T12:19:04;0.40;;;0.40;;
10365;SDS011;5229;41.820;23.490;2023-04-15T12:21:34;1.70;;;0.60;;
10365;SDS011;5229;41.820;23.490;2023-04-15T12:24:02;0.53;;;0.53;;
10365;SDS011;5229;41.820;23.490;2023-04-15T12:26:33;0.50;;;0.50;;
10365;SDS011;5229;41.820;23.490;2023-04-15T12:29:03;0.30;;;0.30;;
10365;SDS011;5229;41.820;23.490;2023-04-15T12:31:31;1.70;;;0.33;;
10365;SDS011;5229;41.820;23.490;2023-04-15T12:33:58;0.33;;;0.30;;
10365;SDS011;5229;41.820;23.490;2023-04-15T12:36:26;0.37;;;0.30;;
10365;SDS011;5229;41.820;23.490;2023-04-15T12:38:54;1.23;;;0.60;;
10365;SDS011;5229;41.820;23.490;2023-04-15T12:41:21;0.57;;;0.57;;
10365;SDS011;5229;41.820;23.490;2023-04-15T12:43:48;0.40;;;0.40;;
10365;SDS011;5229;41.820;23.490;2023-04-15T12:46:16;0.47;;;0.40;;
10365;SDS011;5229;41.820;23.490;2023-04-15T12:48:44;0.50;;;0.50;;
10365;SDS011;5229;41.820;23.490;2023-04-15T12:51:11;0.33;;;0.33;;
10365;SDS011;5229;41.820;23.490;2023-04-15T12:53:38;0.40;;;0.40;;
10365;SDS011;5229;41.820;23.490;2023-04-15T12:56:04;0.50;;;0.30;;
10365;SDS011;5229;41.820;23.490;2023-04-15T12:58:32;0.87;;;0.40;;
10365;SDS011;5229;41.820;23.490;2023-04-15T13:00:58;1.00;;;0.60;;
10365;SDS011;5229;41.820;23.490;2023-04-15T13:03:27;0.97;;;0.50;;
10365;SDS011;5229;41.820;23.490;2023-04-15T13:05:53;0.30;;;0.30;;
10365;SDS011;5229;41.820;23.490;2023-04-15T13:08:22;0.90;;;0.30;;
10365;SDS011;5229;41.820;23.490;2023-04-15T13:10:49;0.50;;;0.30;;
10365;SDS011;5229;41.820;23.490;2023-04-15T13:13:15;0.30;;;0.30;;
10365;SDS011;5229;41.820;23.490;2023-04-15T13:15:42;0.30;;;0.30;;
10365;SDS011;5229;41.820;23.490;2023-04-15T13:18:10;0.60;;;0.40;;
10365;SDS011;5229;41.820;23.490;2023-04-15T13:20:38;1.80;;;0.30;;
10365;SDS011;5229;41.820;23.490;2023-04-15T13:23:05;0.30;;;0.30;;
10365;SDS011;5229;41.820;23.490;2023-04-15T13:25:32;0.20;;;0.20;;
10365;SDS011;5229;41.820;23.490;2023-04-15T13:27:59;0.50;;;0.27;;
10365;SDS011;5229;41.820;23.490;2023-04-15T13:30:26;0.53;;;0.30;;
10365;SDS011;5229;41.820;23.490;2023-04-15T13:32:53;1.23;;;0.50;;
10365;SDS011;5229;41.820;23.490;2023-04-15T13:35:20;0.23;;;0.23;;
10365;SDS011;5229;41.820;23.490;2023-04-15T13:37:48;0.30;;;0.30;;
10365;SDS011;5229;41.820;23.490;2023-04-15T13:40:15;0.60;;;0.40;;
10365;SDS011;5229;41.820;23.490;2023-04-15T13:42:41;0.20;;;0.20;;
10365;SDS011;5229;41.820;23.490;2023-04-15T13:45:08;0.20;;;0.20;;
10365;SDS011;5229;41.820;23.490;2023-04-15T13:47:36;1.73;;;0.33;;
10365;SDS011;5229;41.820;23.490;2023-04-15T13:50:03;1.40;;;0.30;;
10365;SDS011;5229;41.820;23.490;2023-04-15T13:52:30;0.60;;;0.40;;
10365;SDS011;5229;41.820;23.490;2023-04-15T13:54:59;1.50;;;0.50;;
10365;SDS011;5229;41.820;23.490;2023-04-15T13:57:25;0.40;;;0.40;;
10365;SDS011;5229;41.820;23.490;2023-04-15T13:59:52;0.40;;;0.30;;
10365;SDS011;5229;41.820;23.490;2023-04-15T14:02:19;0.20;;;0.20;;
10365;SDS011;5229;41.820;23.490;2023-04-15T14:04:47;0.20;;;0.20;;
10365;SDS011;5229;41.820;23.490;2023-04-15T14:07:13;0.20;;;0.20;;
10365;SDS011;5229;41.820;23.490;2023-04-15T14:09:40;0.30;;;0.30;;
10365;SDS011;5229;41.820;23.490;2023-04-15T14:12:08;0.70;;;0.50;;
10365;SDS011;5229;41.820;23.490;2023-04-15T14:14:35;0.33;;;0.33;;
10365;SDS011;5229;41.820;23.490;2023-04-15T14:17:02;0.67;;;0.53;;
10365;SDS011;5229;41.820;23.490;2023-04-15T14:19:29;0.30;;;0.20;;
10365;SDS011;5229;41.820;23.490;2023-04-15T14:21:56;0.20;;;0.20;;
10365;SDS011;5229;41.820;23.490;2023-04-15T14:24:23;1.43;;;0.50;;
10365;SDS011;5229;41.820;23.490;2023-04-15T14:26:50;0.50;;;0.50;;
10365;SDS011;5229;41.820;23.490;2023-04-15T14:29:19;0.50;;;0.50;;
10365;SDS011;5229;41.820;23.490;2023-04-15T14:31:46;0.90;;;0.50;;
10365;SDS011;5229;41.820;23.490;2023-04-15T14:34:14;0.73;;;0.60;;
10365;SDS011;5229;41.820;23.490;2023-04-15T14:36:41;0.63;;;0.53;;
10365;SDS011;5229;41.820;23.490;2023-04-15T14:39:08;0.93;;;0.40;;
10365;SDS011;5229;41.820;23.490;2023-04-15T14:41:35;1.27;;;0.60;;
10365;SDS011;5229;41.820;23.490;2023-04-15T14:44:02;0.80;;;0.40;;
10365;SDS011;5229;41.820;23.490;2023-04-15T14:46:31;1.43;;;0.53;;
10365;SDS011;5229;41.820;23.490;2023-04-15T14:48:57;0.47;;;0.47;;
10365;SDS011;5229;41.820;23.490;2023-04-15T14:51:24;0.50;;;0.43;;
10365;SDS011;5229;41.820;23.490;2023-04-15T14:53:51;0.60;;;0.60;;
10365;SDS011;5229;41.820;23.490;2023-04-15T14:56:18;0.33;;;0.33;;